Time;durP1;ratioP1;P1;durP2;ratioP2;P2;SDS_P1;SDS_P2;PMS_P1;PMS_P2;Temp;Humidity;BMP_temperature;BMP_pressure;BME280_temperature;BME280_humidity;BME280_pressure;Samples;Min_cycle;Max_cycle;Signal;HPM_P1;HPM_P2
2021/06/23 07:08:37;;;;;;;10.07;3.40;;;;;;;;;;5098118;22;20050;-42
2021/06/23 07:11:03;;;;;;;8.55;3.58;;;;;;;;;;4993527;28;20030;-41
2021/06/23 07:13:29;;;;;;;10.63;3.45;;;;;;;;;;4997414;28;20431;-41
2021/06/23 07:15:55;;;;;;;11.07;3.28;;;;;;;;;;5003304;28;20026;-44
2021/06/23 07:18:21;;;;;;;9.00;3.60;;;;;;;;;;5018750;28;20030;-43
2021/06/23 07:20:47;;;;;;;10.30;3.45;;;;;;;;;;5002599;28;20155;-43
2021/06/23 07:23:13;;;;;;;9.68;3.15;;;;;;;;;;4998345;28;20037;-43
2021/06/23 07:25:39;;;;;;;6.75;3.50;;;;;;;;;;5001573;28;20062;-43
2021/06/23 07:28:06;;;;;;;7.25;4.07;;;;;;;;;;4991217;28;20198;-43
2021/06/23 07:30:34;;;;;;;7.20;3.47;;;;;;;;;;5002574;28;20351;-44
2021/06/23 07:33:07;;;;;;;14.13;4.32;;;;;;;;;;4977580;28;20401;-44
2021/06/23 07:38:18;;;;;;;10.27;3.80;;;;;;;;;;4990776;28;20053;-43
2021/06/23 07:41:00;;;;;;;8.52;3.60;;;;;;;;;;4989836;28;20027;-48
2021/06/23 07:43:26;;;;;;;7.47;3.28;;;;;;;;;;4979983;28;20027;-45
2021/06/23 07:45:55;;;;;;;6.15;3.25;;;;;;;;;;4994024;28;20037;-47
2021/06/23 07:48:27;;;;;;;8.90;3.33;;;;;;;;;;4974780;28;20466;-51
2021/06/23 07:51:07;;;;;;;6.50;3.20;;;;;;;;;;4971365;28;20421;-46
2021/06/23 07:53:54;;;;;;;7.78;3.33;;;;;;;;;;4971761;28;20097;-47
2021/06/23 08:10:08;;;;;;;7.53;3.25;;;;;;;;;;4989926;28;20053;-42
2021/06/23 08:12:44;;;;;;;5.70;3.00;;;;;;;;;;4990098;28;20113;-42
2021/06/23 08:15:11;;;;;;;5.18;3.35;;;;;;;;;;4970731;28;20121;-41
2021/06/23 08:17:37;;;;;;;5.85;3.08;;;;;;;;;;4972001;28;20022;-42
2021/06/23 08:20:04;;;;;;;8.27;3.30;;;;;;;;;;4970784;28;20046;-42
2021/06/23 08:22:30;;;;;;;;;;;;;;;;;;4971029;28;20097;-43
2021/06/23 08:24:56;;;;;;;6.50;3.03;;;;;;;;;;4970706;28;19906;-48
2021/06/23 08:27:22;;;;;;;8.23;3.17;;;;;;;;;;4973459;28;20027;-41
2021/06/23 08:29:48;;;;;;;10.30;3.30;;;;;;;;;;4999625;28;20045;-43
2021/06/23 08:32:15;;;;;;;7.90;3.72;;;;;;;;;;4989807;28;20076;-43
2021/06/23 08:34:41;;;;;;;9.15;3.15;;;;;;;;;;4989982;28;20099;-42
2021/06/23 08:37:07;;;;;;;7.30;3.10;;;;;;;;;;5000308;28;20098;-42
2021/06/23 08:39:33;;;;;;;5.90;2.80;;;;;;;;;;4979941;28;20027;-42
2021/06/23 08:41:59;;;;;;;6.18;3.08;;;;;;;;;;4971277;28;20092;-41
2021/06/23 08:44:25;;;;;;;7.90;3.35;;;;;;;;;;4963902;28;20068;-43
2021/06/23 08:46:52;;;;;;;9.10;3.00;;;;;;;;;;4975848;28;20121;-42
2021/06/23 08:49:19;;;;;;;5.68;3.33;;;;;;;;;;4982586;28;20035;-44
2021/06/23 08:51:45;;;;;;;10.90;3.83;;;;;;;;;;4979977;28;20060;-42
2021/06/23 08:54:12;;;;;;;7.60;3.50;;;;;;;;;;4994707;28;20250;-42
2021/06/23 08:56:38;;;;;;;6.80;3.13;;;;;;;;;;4976313;28;20034;-42
2021/06/23 08:59:05;;;;;;;6.47;3.20;;;;;;;;;;4975264;28;20416;-42
2021/06/23 09:01:32;;;;;;;7.25;3.25;;;;;;;;;;4980884;28;20148;-43
2021/06/23 09:04:01;;;;;;;4.80;2.75;;;;;;;;;;4989777;28;20022;-39
2021/06/23 09:06:42;;;;;;;6.53;3.47;;;;;;;;;;4994630;28;20219;-41
2021/06/23 09:09:19;;;;;;;6.25;3.00;;;;;;;;;;4992017;28;20460;-41
2021/06/23 09:11:46;;;;;;;7.03;3.10;;;;;;;;;;4957962;28;20059;-40
2021/06/23 09:14:13;;;;;;;5.93;3.37;;;;;;;;;;4994305;28;20102;-43
2021/06/23 09:16:39;;;;;;;;;;;;;;;;;;4994652;28;20523;-44
2021/06/23 09:19:25;;;;;;;5.73;3.30;;;;;;;;;;5002486;28;20000;-42
2021/06/23 09:21:51;;;;;;;7.43;2.97;;;;;;;;;;4981361;28;20023;-42
2021/06/23 09:24:18;;;;;;;6.13;3.13;;;;;;;;;;4981440;28;20082;-42
2021/06/23 09:26:44;;;;;;;5.60;3.05;;;;;;;;;;4980792;28;20070;-42
2021/06/23 09:29:10;;;;;;;6.68;3.40;;;;;;;;;;4974310;28;20078;-42
2021/06/23 09:31:55;;;;;;;5.10;3.37;;;;;;;;;;4990411;28;20019;-41
2021/06/23 09:34:21;;;;;;;3.67;3.10;;;;;;;;;;4982967;28;20018;-41
2021/06/23 09:36:48;;;;;;;5.57;3.58;;;;;;;;;;4985454;28;20040;-41
2021/06/23 09:39:19;;;;;;;7.28;3.97;;;;;;;;;;4993417;28;20551;-42
2021/06/23 09:41:45;;;;;;;6.45;3.45;;;;;;;;;;4975419;28;20031;-43
2021/06/23 09:44:12;;;;;;;6.43;3.22;;;;;;;;;;5002412;28;20493;-41
2021/06/23 09:46:40;;;;;;;5.63;3.50;;;;;;;;;;4984090;28;20031;-42
2021/06/23 09:49:09;;;;;;;7.55;3.60;;;;;;;;;;4993569;28;20105;-42
2021/06/23 09:51:42;;;;;;;5.38;3.50;;;;;;;;;;4976161;28;20034;-42
2021/06/23 09:54:09;;;;;;;6.95;3.33;;;;;;;;;;4993887;28;20029;-42
2021/06/23 09:56:46;;;;;;;4.50;2.92;;;;;;;;;;4962422;28;20026;-40
2021/06/23 09:59:38;;;;;;;4.97;3.50;;;;;;;;;;4992427;28;20101;-40
2021/06/23 10:02:04;;;;;;;5.45;2.83;;;;;;;;;;4975252;28;20037;-40
2021/06/23 10:04:37;;;;;;;6.18;3.30;;;;;;;;;;4996844;28;20134;-41
2021/06/23 10:07:04;;;;;;;8.57;3.60;;;;;;;;;;4974130;28;20121;-42
2021/06/23 10:09:31;;;;;;;5.57;3.50;;;;;;;;;;4979909;28;20039;-41
2021/06/23 10:12:02;;;;;;;6.30;2.85;;;;;;;;;;4992858;28;20324;-40
2021/06/23 10:14:29;;;;;;;5.78;3.08;;;;;;;;;;4972871;28;20100;-43
2021/06/23 10:16:56;;;;;;;6.75;3.88;;;;;;;;;;4972802;28;20027;-42
2021/06/23 10:19:22;;;;;;;7.25;4.78;;;;;;;;;;4991408;28;20102;-45
2021/06/23 10:21:49;;;;;;;6.97;3.87;;;;;;;;;;4971709;28;20380;-45
2021/06/23 10:24:16;;;;;;;8.30;4.25;;;;;;;;;;4972628;28;20022;-42
2021/06/23 10:26:47;;;;;;;8.48;4.15;;;;;;;;;;4977287;28;20026;-45
2021/06/23 10:29:14;;;;;;;7.40;4.00;;;;;;;;;;5001633;28;20046;-44
2021/06/23 10:31:41;;;;;;;6.80;4.72;;;;;;;;;;4988721;28;20015;-42
2021/06/23 10:34:08;;;;;;;10.13;4.00;;;;;;;;;;4984960;28;20062;-44
2021/06/23 10:36:34;;;;;;;5.50;4.00;;;;;;;;;;4994194;28;20752;-44
2021/06/23 10:39:01;;;;;;;7.68;4.43;;;;;;;;;;4991660;28;20030;-45
2021/06/23 10:41:27;;;;;;;;;;;;;;;;;;4991724;28;20026;-44
2021/06/23 10:44:16;;;;;;;5.23;3.70;;;;;;;;;;4991347;28;20425;-44
2021/06/23 10:46:42;;;;;;;7.10;4.07;;;;;;;;;;4991044;28;20379;-45
2021/06/23 10:49:10;;;;;;;8.07;4.78;;;;;;;;;;4980868;28;20053;-44
2021/06/23 10:51:40;;;;;;;8.52;3.88;;;;;;;;;;4975427;28;20023;-44
2021/06/23 10:54:40;;;;;;;6.63;3.92;;;;;;;;;;4991056;28;20023;-45
2021/06/23 10:57:23;;;;;;;4.43;3.35;;;;;;;;;;4959615;28;20494;-43
2021/06/23 10:59:49;;;;;;;5.63;3.78;;;;;;;;;;4994442;28;20376;-44
2021/06/23 11:02:15;;;;;;;5.50;3.73;;;;;;;;;;4979189;28;20110;-43
2021/06/23 11:05:05;;;;;;;5.50;4.33;;;;;;;;;;4977031;28;20034;-44
2021/06/23 11:07:37;;;;;;;6.43;3.70;;;;;;;;;;4975222;28;20585;-44
2021/06/23 11:10:13;;;;;;;6.07;3.75;;;;;;;;;;4990163;28;20142;-46
2021/06/23 11:12:51;;;;;;;8.18;4.72;;;;;;;;;;4990670;28;20725;-44
2021/06/23 11:15:18;;;;;;;5.53;4.10;;;;;;;;;;4991070;28;20049;-44
2021/06/23 11:17:44;;;;;;;6.38;4.00;;;;;;;;;;4991323;28;20027;-45
2021/06/23 11:20:20;;;;;;;7.38;3.95;;;;;;;;;;4979643;28;20081;-43
2021/06/23 11:22:47;;;;;;;5.68;3.67;;;;;;;;;;4978841;28;20387;-44
2021/06/23 11:25:26;;;;;;;4.80;3.20;;;;;;;;;;4990796;28;20023;-43
2021/06/23 11:28:08;;;;;;;5.45;3.70;;;;;;;;;;4990117;28;20031;-42
2021/06/23 11:30:38;;;;;;;6.85;3.90;;;;;;;;;;4986240;28;20098;-46
2021/06/23 11:33:23;;;;;;;7.38;4.30;;;;;;;;;;4982113;28;20022;-44
2021/06/23 11:35:51;;;;;;;7.05;3.58;;;;;;;;;;4983202;28;20037;-44
2021/06/23 11:38:17;;;;;;;9.27;4.25;;;;;;;;;;4997211;28;20089;-44
2021/06/23 11:40:46;;;;;;;6.60;3.58;;;;;;;;;;4973265;28;20049;-43
2021/06/23 11:43:12;;;;;;;8.43;4.13;;;;;;;;;;4990713;28;20086;-44
2021/06/23 11:45:38;;;;;;;8.10;4.40;;;;;;;;;;4995885;28;20045;-44
2021/06/23 11:48:05;;;;;;;8.05;4.15;;;;;;;;;;4990683;28;20053;-45
2021/06/23 11:50:31;;;;;;;4.03;3.30;;;;;;;;;;4990849;28;20085;-44
2021/06/23 11:52:57;;;;;;;8.75;4.28;;;;;;;;;;4990696;28;20026;-45
2021/06/23 11:55:24;;;;;;;6.93;3.45;;;;;;;;;;4974630;28;20152;-45
2021/06/23 11:57:54;;;;;;;7.03;4.05;;;;;;;;;;4998837;28;20061;-44
2021/06/23 12:00:20;;;;;;;6.43;3.97;;;;;;;;;;4990999;28;20046;-46
2021/06/23 12:02:47;;;;;;;5.88;3.53;;;;;;;;;;4990815;28;20550;-44
2021/06/23 12:05:13;;;;;;;5.72;3.75;;;;;;;;;;4994792;28;20054;-45
2021/06/23 12:07:39;;;;;;;6.93;4.00;;;;;;;;;;4987120;28;20046;-44
2021/06/23 12:10:06;;;;;;;4.82;3.90;;;;;;;;;;4971040;28;20035;-44
2021/06/23 12:12:32;;;;;;;6.97;3.88;;;;;;;;;;4974869;28;20057;-44
2021/06/23 12:14:58;;;;;;;10.20;4.05;;;;;;;;;;4990503;28;20019;-43
2021/06/23 12:17:24;;;;;;;6.00;3.90;;;;;;;;;;4972181;28;20031;-44
2021/06/23 12:19:52;;;;;;;8.02;3.70;;;;;;;;;;4997993;28;20027;-46
2021/06/23 12:22:19;;;;;;;5.82;3.65;;;;;;;;;;4972996;28;20110;-44
2021/06/23 12:24:46;;;;;;;5.53;3.67;;;;;;;;;;4990693;28;20022;-43
2021/06/23 12:27:12;;;;;;;5.17;3.53;;;;;;;;;;4990726;28;20034;-44
2021/06/23 12:29:38;;;;;;;5.57;3.88;;;;;;;;;;4990993;28;20041;-43
2021/06/23 12:32:05;;;;;;;9.15;4.10;;;;;;;;;;4987425;28;20471;-44
2021/06/23 12:34:31;;;;;;;6.35;3.58;;;;;;;;;;4971274;28;20026;-45
2021/06/23 12:36:57;;;;;;;9.23;4.90;;;;;;;;;;4997410;28;20030;-43
2021/06/23 12:39:24;;;;;;;9.18;4.32;;;;;;;;;;4972181;28;20053;-43
2021/06/23 12:41:50;;;;;;;7.93;4.95;;;;;;;;;;4975517;28;20031;-43
2021/06/23 12:44:19;;;;;;;8.52;4.68;;;;;;;;;;4969218;28;20031;-42
2021/06/23 12:46:46;;;;;;;6.68;4.13;;;;;;;;;;4970423;28;20023;-43
2021/06/23 12:49:13;;;;;;;7.60;4.97;;;;;;;;;;4974587;28;20030;-42
2021/06/23 12:51:39;;;;;;;7.13;4.82;;;;;;;;;;4988408;28;20681;-42
2021/06/23 12:54:05;;;;;;;11.05;4.88;;;;;;;;;;4979931;28;20100;-45
2021/06/23 12:56:32;;;;;;;10.23;5.47;;;;;;;;;;4983975;28;20121;-43
2021/06/23 12:58:58;;;;;;;9.25;4.97;;;;;;;;;;4979288;28;20116;-44
2021/06/23 13:01:24;;;;;;;8.43;5.05;;;;;;;;;;4983358;28;20384;-43
2021/06/23 13:03:50;;;;;;;8.13;5.30;;;;;;;;;;4983380;28;20358;-44
2021/06/23 13:06:17;;;;;;;5.90;4.68;;;;;;;;;;4982306;28;20045;-48
2021/06/23 13:08:43;;;;;;;11.20;5.00;;;;;;;;;;4982163;28;20126;-42
2021/06/23 13:11:09;;;;;;;8.43;5.07;;;;;;;;;;4989209;28;20037;-44
2021/06/23 13:13:35;;;;;;;7.18;4.65;;;;;;;;;;4987663;28;20031;-43
2021/06/23 13:16:02;;;;;;;8.13;5.38;;;;;;;;;;4970774;28;20383;-45
2021/06/23 13:18:29;;;;;;;5.60;4.85;;;;;;;;;;4990097;28;20028;-43
2021/06/23 13:20:55;;;;;;;8.40;5.30;;;;;;;;;;4977416;28;20209;-45
2021/06/23 13:23:22;;;;;;;8.00;5.38;;;;;;;;;;4989586;28;20038;-44
2021/06/23 13:25:49;;;;;;;8.57;5.40;;;;;;;;;;4987224;28;20108;-44
2021/06/23 13:28:17;;;;;;;7.35;5.18;;;;;;;;;;5001529;28;20018;-44
2021/06/23 13:30:43;;;;;;;8.70;5.40;;;;;;;;;;4969804;28;20049;-45
2021/06/23 13:33:09;;;;;;;11.73;5.43;;;;;;;;;;4993957;28;20030;-43
2021/06/23 13:35:35;;;;;;;8.55;4.80;;;;;;;;;;4996110;28;20109;-45
2021/06/23 13:38:02;;;;;;;6.90;4.57;;;;;;;;;;4991844;28;20467;-43
2021/06/23 13:40:28;;;;;;;10.23;6.28;;;;;;;;;;4992690;28;20031;-42
2021/06/23 13:42:55;;;;;;;8.85;5.28;;;;;;;;;;4987214;28;21359;-45
2021/06/23 13:45:21;;;;;;;8.65;5.35;;;;;;;;;;4989269;28;20124;-43
2021/06/23 13:47:48;;;;;;;7.80;5.07;;;;;;;;;;4992450;28;20666;-44
2021/06/23 13:50:18;;;;;;;8.43;5.22;;;;;;;;;;4992232;28;20026;-42
2021/06/23 13:52:49;;;;;;;7.38;5.20;;;;;;;;;;4987106;28;20026;-42
2021/06/23 13:55:23;;;;;;;9.95;4.97;;;;;;;;;;4974808;28;20514;-43
2021/06/23 13:57:49;;;;;;;8.05;5.13;;;;;;;;;;4992659;28;20031;-44
2021/06/23 14:00:16;;;;;;;8.23;5.35;;;;;;;;;;4985941;28;20114;-43
2021/06/23 14:02:42;;;;;;;8.50;4.93;;;;;;;;;;4974101;28;20487;-43
2021/06/23 14:05:08;;;;;;;9.25;5.03;;;;;;;;;;4986419;28;20069;-43
2021/06/23 14:07:34;;;;;;;7.47;5.47;;;;;;;;;;4990878;28;20070;-45
2021/06/23 14:10:01;;;;;;;6.80;4.93;;;;;;;;;;4990996;28;20440;-43
2021/06/23 14:12:27;;;;;;;8.40;4.68;;;;;;;;;;4990660;28;20110;-43
2021/06/23 14:14:53;;;;;;;6.95;4.72;;;;;;;;;;4991306;28;20097;-44
2021/06/23 14:17:19;;;;;;;7.70;5.28;;;;;;;;;;4989487;28;20088;-42
2021/06/23 14:19:48;;;;;;;7.30;4.80;;;;;;;;;;5001173;28;20527;-42
2021/06/23 14:22:14;;;;;;;6.80;5.18;;;;;;;;;;4977462;28;20031;-41
2021/06/23 14:24:40;;;;;;;7.35;5.47;;;;;;;;;;4973441;28;20920;-44
2021/06/23 14:27:07;;;;;;;5.60;4.75;;;;;;;;;;4987641;28;20097;-44
2021/06/23 14:29:33;;;;;;;6.95;4.85;;;;;;;;;;4999471;28;20065;-43
2021/06/23 14:31:59;;;;;;;6.25;4.82;;;;;;;;;;4976135;28;20050;-42
2021/06/23 14:34:25;;;;;;;6.63;4.90;;;;;;;;;;4973909;28;20081;-42
2021/06/23 14:36:54;;;;;;;5.57;4.97;;;;;;;;;;4997768;28;20084;-41
2021/06/23 14:39:23;;;;;;;7.97;4.82;;;;;;;;;;4982940;28;20046;-44
2021/06/23 14:41:49;;;;;;;7.65;5.38;;;;;;;;;;4973822;28;20082;-42
2021/06/23 14:44:18;;;;;;;6.20;4.90;;;;;;;;;;4975433;28;20435;-43
2021/06/23 14:46:44;;;;;;;7.57;5.00;;;;;;;;;;4988608;28;20033;-43
2021/06/23 14:49:13;;;;;;;6.32;5.18;;;;;;;;;;4984900;28;20105;-43
2021/06/23 14:51:41;;;;;;;6.70;5.15;;;;;;;;;;4957565;28;20066;-43
2021/06/23 14:54:07;;;;;;;8.57;5.03;;;;;;;;;;4973014;28;20054;-42
2021/06/23 14:56:33;;;;;;;9.75;5.05;;;;;;;;;;4973476;28;20034;-41
2021/06/23 14:59:00;;;;;;;11.60;5.05;;;;;;;;;;4971447;28;20084;-45
2021/06/23 15:01:26;;;;;;;13.30;5.57;;;;;;;;;;4972322;28;20099;-44
2021/06/23 15:03:52;;;;;;;10.00;5.47;;;;;;;;;;4977786;28;20109;-43
2021/06/23 15:06:18;;;;;;;10.10;5.85;;;;;;;;;;4974204;28;20101;-46
2021/06/23 15:08:44;;;;;;;8.90;5.50;;;;;;;;;;4986929;28;20058;-47
2021/06/23 15:11:11;;;;;;;10.20;5.55;;;;;;;;;;4990174;28;20048;-42
2021/06/23 15:13:37;;;;;;;24.33;6.30;;;;;;;;;;4990910;28;20034;-42
2021/06/23 15:16:04;;;;;;;10.23;5.85;;;;;;;;;;4972840;28;20269;-42
2021/06/23 15:18:30;;;;;;;8.48;5.78;;;;;;;;;;4973508;28;20093;-43
2021/06/23 15:20:57;;;;;;;10.03;5.17;;;;;;;;;;4991595;28;20117;-44
2021/06/23 15:23:24;;;;;;;8.32;5.30;;;;;;;;;;4991209;28;20022;-42
2021/06/23 15:25:50;;;;;;;8.43;5.10;;;;;;;;;;4991326;28;20022;-42
2021/06/23 15:28:17;;;;;;;11.77;5.90;;;;;;;;;;4991253;28;20022;-41
2021/06/23 15:30:44;;;;;;;10.50;5.70;;;;;;;;;;4994407;28;20507;-42
2021/06/23 15:33:10;;;;;;;9.73;5.15;;;;;;;;;;4991504;28;20045;-43
2021/06/23 15:35:37;;;;;;;9.35;6.32;;;;;;;;;;4994648;28;20111;-42
2021/06/23 15:38:05;;;;;;;7.15;5.65;;;;;;;;;;4993782;28;20027;-41
2021/06/23 15:40:31;;;;;;;8.25;5.22;;;;;;;;;;4989756;28;20478;-43
2021/06/23 15:42:57;;;;;;;12.07;6.38;;;;;;;;;;4991291;28;20030;-44
2021/06/23 15:45:24;;;;;;;11.70;5.47;;;;;;;;;;4994737;28;20030;-43
2021/06/23 15:47:51;;;;;;;9.40;4.95;;;;;;;;;;4991386;28;20034;-44
2021/06/23 15:50:17;;;;;;;;;;;;;;;;;;4988839;28;20041;-45
2021/06/23 15:52:44;;;;;;;9.75;5.97;;;;;;;;;;4981128;28;19910;-43
2021/06/23 15:55:11;;;;;;;9.35;5.90;;;;;;;;;;4990309;28;20030;-41
2021/06/23 15:57:39;;;;;;;8.80;6.00;;;;;;;;;;4988204;28;20102;-42
2021/06/23 16:00:07;;;;;;;8.65;5.55;;;;;;;;;;4995099;28;20403;-56
2021/06/23 16:02:33;;;;;;;10.13;6.30;;;;;;;;;;4990176;28;20022;-44
2021/06/23 16:05:02;;;;;;;7.72;5.70;;;;;;;;;;4971470;28;20030;-42
2021/06/23 16:07:31;;;;;;;13.05;7.13;;;;;;;;;;4987497;28;20085;-44
2021/06/23 16:10:00;;;;;;;10.38;6.88;;;;;;;;;;4989336;28;20037;-45
2021/06/23 16:12:26;;;;;;;9.93;5.75;;;;;;;;;;4989143;28;20062;-43
2021/06/23 16:14:52;;;;;;;12.30;7.35;;;;;;;;;;4993186;28;20038;-43
2021/06/23 16:17:21;;;;;;;11.95;7.13;;;;;;;;;;4989679;28;20035;-44
2021/06/23 16:19:47;;;;;;;8.82;6.57;;;;;;;;;;4995581;28;20034;-43
2021/06/23 16:22:13;;;;;;;13.18;6.88;;;;;;;;;;4990668;28;20172;-43
2021/06/23 16:24:40;;;;;;;10.65;7.00;;;;;;;;;;4978347;28;20027;-43
2021/06/23 16:27:08;;;;;;;11.75;6.78;;;;;;;;;;4977765;28;20033;-43
2021/06/23 16:29:37;;;;;;;9.95;6.55;;;;;;;;;;4988972;28;20498;-44
2021/06/23 16:32:03;;;;;;;13.88;6.50;;;;;;;;;;4971107;28;20106;-44
2021/06/23 16:34:29;;;;;;;14.00;6.87;;;;;;;;;;4970910;28;20030;-44
2021/06/23 16:36:55;;;;;;;10.60;6.43;;;;;;;;;;4986843;28;20027;-43
2021/06/23 16:39:22;;;;;;;15.65;6.22;;;;;;;;;;4960221;28;20033;-43
2021/06/23 16:41:48;;;;;;;11.70;6.20;;;;;;;;;;4974520;28;20054;-43
2021/06/23 16:44:15;;;;;;;10.07;5.85;;;;;;;;;;4970862;28;20023;-42
2021/06/23 16:46:41;;;;;;;11.33;6.70;;;;;;;;;;4970637;28;20033;-43
2021/06/23 16:49:08;;;;;;;9.40;5.50;;;;;;;;;;4973576;28;20347;-42
2021/06/23 16:51:35;;;;;;;8.93;5.68;;;;;;;;;;4954346;28;20039;-42
2021/06/23 16:54:01;;;;;;;10.25;6.18;;;;;;;;;;4997236;28;20022;-43
2021/06/23 16:56:28;;;;;;;8.18;5.78;;;;;;;;;;4992459;28;20115;-44
2021/06/23 16:58:54;;;;;;;11.07;6.25;;;;;;;;;;4998725;28;20048;-45
2021/06/23 17:01:25;;;;;;;10.40;5.90;;;;;;;;;;4980630;28;20399;-45
2021/06/23 17:03:53;;;;;;;7.20;5.13;;;;;;;;;;4995434;28;20022;-41
2021/06/23 17:06:23;;;;;;;9.57;6.22;;;;;;;;;;4976848;28;20027;-42
2021/06/23 17:08:51;;;;;;;10.98;6.30;;;;;;;;;;4991839;28;20072;-43
2021/06/23 17:11:18;;;;;;;11.45;6.40;;;;;;;;;;4962277;28;20498;-43
2021/06/23 17:13:45;;;;;;;9.48;5.75;;;;;;;;;;4982341;28;20032;-43
2021/06/23 17:16:12;;;;;;;13.23;6.35;;;;;;;;;;4985961;28;20043;-43
2021/06/23 17:18:38;;;;;;;14.52;6.90;;;;;;;;;;4995776;28;20037;-44
2021/06/23 17:21:05;;;;;;;12.53;6.63;;;;;;;;;;4986284;28;20234;-48
2021/06/23 17:23:31;;;;;;;13.95;5.90;;;;;;;;;;4964065;28;20043;-47
2021/06/23 17:25:57;;;;;;;13.32;5.60;;;;;;;;;;4990865;28;20448;-47
2021/06/23 17:28:23;;;;;;;9.48;5.43;;;;;;;;;;4984837;28;20034;-45
2021/06/23 17:30:50;;;;;;;13.85;5.88;;;;;;;;;;4990029;28;20426;-47
2021/06/23 17:33:21;;;;;;;14.38;5.60;;;;;;;;;;4981728;28;20026;-48
2021/06/23 17:35:49;;;;;;;12.98;5.18;;;;;;;;;;4992494;28;20022;-49
2021/06/23 17:38:15;;;;;;;11.98;5.35;;;;;;;;;;4988452;28;20034;-44
2021/06/23 17:40:46;;;;;;;8.48;5.32;;;;;;;;;;4991994;28;20417;-46
2021/06/23 17:43:12;;;;;;;7.35;4.93;;;;;;;;;;4989346;28;20502;-45
2021/06/23 17:45:38;;;;;;;9.75;4.53;;;;;;;;;;4990036;28;20034;-45
2021/06/23 17:48:04;;;;;;;9.88;4.72;;;;;;;;;;4991450;28;20090;-45
2021/06/23 17:50:34;;;;;;;7.57;4.37;;;;;;;;;;4978836;28;20026;-46
2021/06/23 17:53:00;;;;;;;7.28;4.22;;;;;;;;;;4989145;28;20079;-42
2021/06/23 17:55:27;;;;;;;9.43;3.70;;;;;;;;;;4970682;28;20794;-42
2021/06/23 17:57:57;;;;;;;7.75;3.55;;;;;;;;;;4988747;28;20045;-41
2021/06/23 18:00:23;;;;;;;10.90;3.13;;;;;;;;;;4983823;28;20382;-41
2021/06/23 18:02:50;;;;;;;12.03;3.30;;;;;;;;;;4987145;28;20042;-41
2021/06/23 18:05:16;;;;;;;5.45;3.70;;;;;;;;;;4992015;28;20320;-42
2021/06/23 18:07:42;;;;;;;5.60;2.80;;;;;;;;;;4980772;28;20038;-42
2021/06/23 18:10:08;;;;;;;5.90;3.03;;;;;;;;;;4983476;28;20054;-42
2021/06/23 18:12:35;;;;;;;7.30;3.13;;;;;;;;;;4991273;28;20472;-42
2021/06/23 18:15:01;;;;;;;8.68;3.35;;;;;;;;;;4971424;28;20036;-42
2021/06/23 18:17:27;;;;;;;6.93;3.38;;;;;;;;;;4970185;28;20341;-42
2021/06/23 18:19:53;;;;;;;4.25;2.83;;;;;;;;;;4990243;28;20079;-41
2021/06/23 18:22:19;;;;;;;7.78;3.25;;;;;;;;;;4991387;28;20084;-42
2021/06/23 18:24:45;;;;;;;5.35;2.80;;;;;;;;;;4990970;28;20101;-42
2021/06/23 18:27:11;;;;;;;5.97;2.97;;;;;;;;;;4991061;28;20050;-43
2021/06/23 18:29:38;;;;;;;5.68;3.15;;;;;;;;;;4988173;28;20133;-43
2021/06/23 18:32:04;;;;;;;5.83;2.70;;;;;;;;;;4990451;28;20076;-42
2021/06/23 18:34:31;;;;;;;6.43;3.30;;;;;;;;;;4968325;28;20034;-43
2021/06/23 18:36:57;;;;;;;6.05;2.63;;;;;;;;;;4993002;28;20434;-42
2021/06/23 18:39:23;;;;;;;5.70;2.60;;;;;;;;;;4986247;28;20100;-42
2021/06/23 18:41:49;;;;;;;7.40;2.78;;;;;;;;;;4990324;28;20070;-42
2021/06/23 18:44:15;;;;;;;7.28;2.70;;;;;;;;;;4990586;28;20063;-42
2021/06/23 18:46:42;;;;;;;7.82;3.00;;;;;;;;;;4990192;28;20069;-42
2021/06/23 18:49:08;;;;;;;12.13;3.25;;;;;;;;;;4990633;28;20038;-42
2021/06/23 18:51:34;;;;;;;7.13;2.80;;;;;;;;;;4990490;28;20122;-42
2021/06/23 18:54:01;;;;;;;6.90;2.88;;;;;;;;;;4990635;28;20022;-42
2021/06/23 18:56:27;;;;;;;5.53;2.77;;;;;;;;;;4990480;28;20479;-43
2021/06/23 18:58:56;;;;;;;7.75;2.90;;;;;;;;;;4984979;28;20136;-42
2021/06/23 19:01:22;;;;;;;7.43;2.85;;;;;;;;;;4983515;28;20055;-45
2021/06/23 19:03:48;;;;;;;5.80;2.65;;;;;;;;;;4990911;28;20038;-42
2021/06/23 19:06:16;;;;;;;7.57;2.88;;;;;;;;;;4991641;28;20023;-42
2021/06/23 19:08:43;;;;;;;4.43;2.40;;;;;;;;;;4988543;28;20070;-44
2021/06/23 19:11:09;;;;;;;4.80;2.55;;;;;;;;;;4971602;28;20200;-41
2021/06/23 19:13:35;;;;;;;4.78;2.88;;;;;;;;;;4989779;28;20053;-42
2021/06/23 19:16:02;;;;;;;7.10;3.30;;;;;;;;;;4996535;28;20084;-42
2021/06/23 19:18:28;;;;;;;6.95;2.60;;;;;;;;;;4998527;28;20128;-41
2021/06/23 19:20:54;;;;;;;4.70;2.42;;;;;;;;;;4999410;28;20053;-44
2021/06/23 19:23:20;;;;;;;6.63;3.33;;;;;;;;;;4996153;28;20092;-43
2021/06/23 19:25:46;;;;;;;5.37;2.60;;;;;;;;;;4998621;28;20022;-42
2021/06/23 19:28:12;;;;;;;6.03;2.60;;;;;;;;;;4979099;28;20022;-42
2021/06/23 19:30:39;;;;;;;6.43;3.15;;;;;;;;;;4992387;28;20045;-42
2021/06/23 19:33:05;;;;;;;6.97;2.80;;;;;;;;;;4980226;28;20037;-43
2021/06/23 19:35:31;;;;;;;8.15;3.25;;;;;;;;;;4996833;28;20023;-44
2021/06/23 19:37:57;;;;;;;5.35;2.90;;;;;;;;;;4995674;28;20109;-43
2021/06/23 19:40:23;;;;;;;5.72;3.30;;;;;;;;;;4998178;28;20049;-42
2021/06/23 19:42:50;;;;;;;6.13;2.70;;;;;;;;;;5000110;28;20026;-43
2021/06/23 19:45:17;;;;;;;6.63;2.93;;;;;;;;;;4996354;28;20037;-43
2021/06/23 19:47:43;;;;;;;5.88;2.75;;;;;;;;;;4997135;28;20040;-43
2021/06/23 19:50:10;;;;;;;7.22;2.95;;;;;;;;;;4998751;28;20033;-42
2021/06/23 19:52:37;;;;;;;8.40;3.28;;;;;;;;;;4978667;28;20029;-42
2021/06/23 19:55:03;;;;;;;;;;;;;;;;;;5002843;28;20042;-42
2021/06/23 19:57:30;;;;;;;8.67;2.80;;;;;;;;;;4980814;28;19979;-42
2021/06/23 19:59:56;;;;;;;9.13;3.28;;;;;;;;;;4998529;28;20036;-43
2021/06/23 20:02:22;;;;;;;6.55;2.97;;;;;;;;;;5001258;28;20543;-42
2021/06/23 20:04:48;;;;;;;4.35;2.42;;;;;;;;;;4997626;28;20026;-42
2021/06/23 20:07:15;;;;;;;8.25;3.45;;;;;;;;;;4994750;28;20046;-43
2021/06/23 20:09:41;;;;;;;7.15;2.90;;;;;;;;;;4995007;28;20031;-42
2021/06/23 20:12:07;;;;;;;8.55;2.95;;;;;;;;;;4997754;28;20037;-42
2021/06/23 20:14:33;;;;;;;4.15;2.78;;;;;;;;;;4991957;28;20030;-42
2021/06/23 20:17:00;;;;;;;5.50;2.58;;;;;;;;;;4995716;28;20037;-43
2021/06/23 20:19:28;;;;;;;8.48;3.53;;;;;;;;;;4980578;28;20040;-42
2021/06/23 20:21:59;;;;;;;6.45;3.03;;;;;;;;;;4997315;28;20026;-43
2021/06/23 20:24:26;;;;;;;7.85;3.17;;;;;;;;;;4996542;28;20040;-43
2021/06/23 20:26:52;;;;;;;;;;;;;;;;;;4997197;28;20399;-42
2021/06/23 20:29:20;;;;;;;6.47;2.80;;;;;;;;;;4997566;28;19910;-41
2021/06/23 20:31:50;;;;;;;7.32;2.83;;;;;;;;;;4995426;28;20039;-42
2021/06/23 20:34:21;;;;;;;5.47;2.70;;;;;;;;;;4995730;28;20027;-42
2021/06/23 20:36:47;;;;;;;7.45;2.83;;;;;;;;;;4979166;28;20080;-42
2021/06/23 20:39:13;;;;;;;7.63;2.93;;;;;;;;;;4995638;28;20068;-42
2021/06/23 20:41:39;;;;;;;6.07;2.75;;;;;;;;;;4996510;28;20014;-43
2021/06/23 20:44:11;;;;;;;4.85;3.05;;;;;;;;;;4997306;28;20038;-42
2021/06/23 20:46:37;;;;;;;7.95;3.15;;;;;;;;;;4979376;28;20173;-42
2021/06/23 20:49:05;;;;;;;4.70;2.75;;;;;;;;;;4996186;28;20023;-43
2021/06/23 20:51:34;;;;;;;6.22;2.60;;;;;;;;;;4997344;28;20382;-43
2021/06/23 20:54:00;;;;;;;7.40;2.72;;;;;;;;;;4999337;28;20046;-42
2021/06/23 20:56:29;;;;;;;9.60;2.90;;;;;;;;;;4997528;28;20026;-42
2021/06/23 20:58:57;;;;;;;3.22;2.45;;;;;;;;;;4995878;28;20268;-42
2021/06/23 21:01:23;;;;;;;5.63;2.22;;;;;;;;;;4973729;28;20033;-42
2021/06/23 21:04:00;;;;;;;6.57;2.88;;;;;;;;;;4980508;28;20399;-41
2021/06/23 21:06:26;;;;;;;5.22;2.50;;;;;;;;;;4985268;28;20114;-42
2021/06/23 21:08:54;;;;;;;5.35;2.60;;;;;;;;;;4964427;28;20053;-41
2021/06/23 21:11:35;;;;;;;7.60;2.50;;;;;;;;;;4969952;28;20077;-42
2021/06/23 21:14:02;;;;;;;6.93;2.75;;;;;;;;;;4981105;28;20029;-42
2021/06/23 21:16:37;;;;;;;8.48;3.25;;;;;;;;;;4980710;28;20464;-43
2021/06/23 21:19:03;;;;;;;4.32;2.45;;;;;;;;;;4997485;28;20018;-41
2021/06/23 21:21:29;;;;;;;5.60;2.47;;;;;;;;;;4982060;28;20443;-42
2021/06/23 21:23:56;;;;;;;4.90;2.67;;;;;;;;;;4986127;28;20034;-44
2021/06/23 21:26:22;;;;;;;6.03;2.42;;;;;;;;;;4971603;28;20385;-41
2021/06/23 21:28:53;;;;;;;5.03;2.95;;;;;;;;;;4989074;28;20045;-44
